Time;durP1;ratioP1;P1;durP2;ratioP2;P2;SDS_P1;SDS_P2;PMS_P1;PMS_P2;Temp;Humidity;BMP_temperature;BMP_pressure;BME280_temperature;BME280_humidity;BME280_pressure;Samples;Min_cycle;Max_cycle;Signal;HPM_P1;HPM_P2
2023/03/06 00:01:25;;;;;;;6.68;4.95;;;;;;;2.51;100.00;100866.78;5116913;27;20034;-57
2023/03/06 00:03:51;;;;;;;6.28;5.30;;;;;;;2.50;100.00;100861.63;5116888;27;20019;-54
2023/03/06 00:06:17;;;;;;;8.13;5.28;;;;;;;2.50;100.00;100862.50;5115537;27;20035;-54
2023/03/06 00:08:42;;;;;;;7.18;5.07;;;;;;;2.50;100.00;100861.63;5125561;27;20050;-56
2023/03/06 00:11:07;;;;;;;7.50;5.75;;;;;;;2.50;100.00;100861.63;5128353;27;20102;-53
2023/03/06 00:13:33;;;;;;;6.68;5.50;;;;;;;2.48;100.00;100859.09;5113179;27;20148;-56
2023/03/06 00:15:59;;;;;;;8.95;5.97;;;;;;;2.46;100.00;100855.66;5114439;28;20125;-57
2023/03/06 00:18:25;;;;;;;7.10;5.78;;;;;;;2.44;100.00;100849.63;5114618;27;20044;-56
2023/03/06 00:20:50;;;;;;;9.00;5.82;;;;;;;2.42;100.00;100851.47;5113628;28;20024;-56
2023/03/06 00:23:16;;;;;;;8.40;6.10;;;;;;;2.42;100.00;100840.16;5112630;27;20020;-56
2023/03/06 00:25:45;;;;;;;7.63;6.03;;;;;;;2.39;100.00;100843.75;5102480;28;20117;-56
2023/03/06 00:28:13;;;;;;;7.22;5.72;;;;;;;2.38;100.00;100842.91;5113194;28;20023;-56
2023/03/06 00:30:38;;;;;;;6.55;5.78;;;;;;;2.38;100.00;100837.66;5113613;28;20028;-57
2023/03/06 00:33:04;;;;;;;6.68;5.97;;;;;;;2.36;100.00;100836.84;5113192;27;20034;-55
2023/03/06 00:35:29;;;;;;;9.50;6.40;;;;;;;2.34;100.00;100838.69;5109585;28;20027;-56
2023/03/06 00:37:56;;;;;;;7.57;6.30;;;;;;;2.32;100.00;100830.03;5113915;27;20031;-56
2023/03/06 00:40:22;;;;;;;6.82;6.13;;;;;;;2.30;100.00;100829.25;5113566;27;20024;-56
2023/03/06 00:42:47;;;;;;;11.55;6.82;;;;;;;2.27;100.00;100829.38;5095406;28;20131;-55
2023/03/06 00:45:13;;;;;;;7.57;6.75;;;;;;;2.25;100.00;100826.00;5113847;27;20433;-56
2023/03/06 00:47:39;;;;;;;9.27;6.65;;;;;;;2.20;100.00;100825.34;5113490;27;20466;-53
2023/03/06 00:50:05;;;;;;;8.25;6.80;;;;;;;2.18;100.00;100821.91;5114218;27;20035;-54
2023/03/06 00:52:30;;;;;;;8.05;6.70;;;;;;;2.15;100.00;100822.91;5113510;27;20482;-54
2023/03/06 00:54:55;;;;;;;8.40;7.10;;;;;;;2.13;100.00;100816.88;5113554;28;20607;-58
2023/03/06 00:57:20;;;;;;;8.85;7.03;;;;;;;2.10;100.00;100813.50;5113581;27;20508;-56
2023/03/06 00:59:46;;;;;;;8.73;7.10;;;;;;;2.09;100.00;100815.28;5113451;28;20107;-55
2023/03/06 01:02:11;;;;;;;9.35;7.25;;;;;;;2.04;100.00;100815.47;5111904;28;20494;-56
2023/03/06 01:04:36;;;;;;;10.95;7.72;;;;;;;2.01;100.00;100812.97;5113369;28;20023;-56
2023/03/06 01:07:02;;;;;;;11.43;7.70;;;;;;;1.96;100.00;100814.94;5109653;27;20039;-56
2023/03/06 01:09:28;;;;;;;8.88;7.82;;;;;;;1.93;100.00;100809.84;5096121;27;20043;-55
2023/03/06 01:11:54;;;;;;;10.77;7.57;;;;;;;1.90;100.00;100801.22;5112063;27;20031;-58
2023/03/06 01:14:19;;;;;;;10.43;7.15;;;;;;;1.85;100.00;100798.84;5113101;28;20053;-53
2023/03/06 01:16:45;;;;;;;8.48;7.43;;;;;;;1.83;100.00;100805.88;5113066;27;20070;-56
2023/03/06 01:19:11;;;;;;;8.27;7.47;;;;;;;1.78;100.00;100800.84;5113090;28;20027;-56
2023/03/06 01:21:36;;;;;;;9.65;8.02;;;;;;;1.75;100.00;100803.59;5112378;28;20031;-56
2023/03/06 01:24:02;;;;;;;10.32;7.60;;;;;;;1.74;100.00;100803.66;5111830;28;20031;-56
2023/03/06 01:26:27;;;;;;;9.48;8.13;;;;;;;1.69;100.00;100801.22;5097461;28;20389;-55
2023/03/06 01:28:52;;;;;;;12.70;8.00;;;;;;;1.67;100.00;100806.50;5103184;28;20032;-55
2023/03/06 01:31:18;;;;;;;8.85;7.85;;;;;;;1.64;100.00;100790.06;5112816;27;20020;-56
2023/03/06 01:33:43;;;;;;;12.95;8.57;;;;;;;1.59;100.00;100790.25;5107316;28;20027;-56
2023/03/06 01:36:11;;;;;;;11.52;7.65;;;;;;;1.56;100.00;100790.38;5112556;28;20031;-57
2023/03/06 01:38:36;;;;;;;9.43;7.35;;;;;;;1.55;100.00;100795.66;5105079;28;20024;-56
2023/03/06 01:41:02;;;;;;;11.05;8.10;;;;;;;1.52;100.00;100788.78;5112751;28;20065;-55
2023/03/06 01:43:31;;;;;;;12.35;7.78;;;;;;;1.49;100.00;100799.38;5112464;28;20055;-57
2023/03/06 01:46:27;;;;;;;12.23;7.32;;;;;;;1.48;100.00;100790.69;5108490;28;20122;-56
2023/03/06 01:49:17;;;;;;;11.15;7.50;;;;;;;1.46;100.00;100783.81;5108672;28;20032;-57
2023/03/06 01:51:53;;;;;;;10.70;7.88;;;;;;;1.39;100.00;100779.72;5112460;28;20024;-57
2023/03/06 01:54:31;;;;;;;11.40;8.40;;;;;;;1.36;100.00;100772.84;5111911;28;20028;-57
2023/03/06 01:57:04;;;;;;;10.75;8.32;;;;;;;1.31;100.00;100774.78;5112930;28;20084;-54
2023/03/06 01:59:34;;;;;;;10.85;8.27;;;;;;;1.28;100.00;100782.75;5112035;28;20042;-55
2023/03/06 02:02:01;;;;;;;10.73;7.55;;;;;;;1.23;100.00;100772.50;5112323;28;20425;-56
2023/03/06 02:04:27;;;;;;;10.98;8.07;;;;;;;1.22;100.00;100776.00;5111791;28;20031;-55
2023/03/06 02:06:53;;;;;;;11.40;7.90;;;;;;;1.19;100.00;100770.88;5112082;28;20492;-56
2023/03/06 02:09:18;;;;;;;9.77;8.15;;;;;;;1.17;100.00;100770.09;5111547;28;20078;-55
2023/03/06 02:11:45;;;;;;;12.25;8.82;;;;;;;1.12;100.00;100764.19;5115364;28;20095;-53
2023/03/06 02:14:13;;;;;;;12.05;8.00;;;;;;;1.07;100.00;100766.13;5095773;28;20027;-56
2023/03/06 02:16:40;;;;;;;10.45;8.43;;;;;;;1.04;100.00;100766.25;5114436;28;20382;-54
2023/03/06 02:19:13;;;;;;;10.27;8.30;;;;;;;0.99;100.00;100758.56;5111817;28;20024;-55
2023/03/06 02:21:38;;;;;;;11.93;8.10;;;;;;;0.97;100.00;100759.56;5111932;28;20027;-54
2023/03/06 02:24:41;;;;;;;10.40;7.93;;;;;;;0.97;100.00;100759.56;5105740;28;20023;-53
2023/03/06 02:27:08;;;;;;;12.80;8.25;;;;;;;0.88;100.00;100748.53;5114859;28;20076;-56
2023/03/06 02:29:34;;;;;;;8.00;6.82;;;;;;;0.84;100.00;100740.88;5116856;27;20032;-53
2023/03/06 02:31:59;;;;;;;11.25;7.53;;;;;;;0.81;100.00;100744.44;5115238;28;20072;-55
2023/03/06 02:34:25;;;;;;;10.13;8.23;;;;;;;0.77;100.00;100741.97;5116871;27;20016;-53
2023/03/06 02:36:56;;;;;;;10.37;7.90;;;;;;;0.74;100.00;100746.41;5109721;28;20032;-55
2023/03/06 02:39:27;;;;;;;11.77;7.75;;;;;;;0.69;100.00;100734.44;5117180;27;20273;-56
2023/03/06 02:41:53;;;;;;;11.02;7.75;;;;;;;0.65;100.00;100728.47;5111304;27;20043;-55
2023/03/06 02:44:19;;;;;;;13.55;8.75;;;;;;;0.59;100.00;100728.69;5116848;27;20024;-54
2023/03/06 02:46:44;;;;;;;14.27;8.57;;;;;;;0.54;100.00;100715.81;5115081;28;20031;-53
2023/03/06 02:49:10;;;;;;;10.48;8.32;;;;;;;0.50;100.00;100718.56;5117616;27;20042;-53
2023/03/06 02:51:35;;;;;;;11.27;8.20;;;;;;;0.47;100.00;100714.34;5115339;28;20076;-56
2023/03/06 02:54:00;;;;;;;10.55;8.00;;;;;;;0.46;100.00;100723.06;5115125;28;20106;-53
2023/03/06 02:56:26;;;;;;;13.88;8.80;;;;;;;0.43;100.00;100711.88;5115128;28;20664;-53
2023/03/06 02:58:51;;;;;;;13.20;8.63;;;;;;;0.38;100.00;100719.88;5116831;27;20020;-53
2023/03/06 03:01:17;;;;;;;11.55;8.63;;;;;;;0.34;100.00;100721.75;5115375;28;20038;-54
2023/03/06 03:03:42;;;;;;;11.15;8.57;;;;;;;0.32;100.00;100718.34;5111309;27;20020;-53
2023/03/06 03:06:08;;;;;;;12.98;9.10;;;;;;;0.31;100.00;100708.78;5098176;27;20124;-53
2023/03/06 03:08:34;;;;;;;11.82;8.65;;;;;;;0.30;100.00;100706.25;5114399;27;20209;-53
2023/03/06 03:11:00;;;;;;;13.13;9.82;;;;;;;0.27;100.00;100709.84;5115901;27;20032;-53
2023/03/06 03:13:25;;;;;;;12.40;9.32;;;;;;;0.27;100.00;100701.16;5115508;27;20050;-54
2023/03/06 03:16:02;;;;;;;12.13;9.48;;;;;;;0.29;100.00;100707.16;5113487;27;20063;-54
2023/03/06 03:18:28;;;;;;;12.85;9.13;;;;;;;0.29;100.00;100704.56;5113662;28;20023;-54
2023/03/06 03:20:54;;;;;;;11.65;9.25;;;;;;;0.28;100.00;100702.84;5115378;27;20096;-53
2023/03/06 03:23:19;;;;;;;12.23;9.57;;;;;;;0.27;100.00;100702.00;5114674;27;20505;-54
2023/03/06 03:25:44;;;;;;;14.88;9.57;;;;;;;0.24;100.00;100704.72;5111352;28;20028;-56
2023/03/06 03:28:10;;;;;;;13.95;9.63;;;;;;;0.24;100.00;100704.72;5107956;28;20085;-54
2023/03/06 03:30:35;;;;;;;14.68;10.30;;;;;;;0.22;100.00;100698.69;5108556;27;20035;-53
2023/03/06 03:33:00;;;;;;;15.98;10.75;;;;;;;0.21;100.00;100690.91;5110824;27;20103;-53
2023/03/06 03:35:25;;;;;;;14.45;10.93;;;;;;;0.19;100.00;100693.59;5107759;27;20116;-53
2023/03/06 03:37:51;;;;;;;13.57;10.73;;;;;;;0.16;100.00;100678.84;5115944;27;20020;-56
2023/03/06 03:40:17;;;;;;;13.90;10.80;;;;;;;0.14;100.00;100688.50;5113379;27;20027;-53
2023/03/06 03:42:43;;;;;;;15.15;10.73;;;;;;;0.12;100.00;100685.13;5106951;27;20119;-56
2023/03/06 03:45:08;;;;;;;16.23;11.75;;;;;;;0.11;100.00;100683.41;5116001;27;20031;-52
2023/03/06 03:47:34;;;;;;;18.67;11.75;;;;;;;0.09;100.00;100677.38;5110745;27;20032;-57
2023/03/06 03:49:59;;;;;;;17.08;12.02;;;;;;;0.10;100.00;100675.63;5115352;27;20024;-56
2023/03/06 03:52:24;;;;;;;15.48;11.63;;;;;;;0.09;100.00;100669.56;5115121;27;20035;-56
2023/03/06 03:54:49;;;;;;;17.88;12.45;;;;;;;0.09;100.00;100671.31;5114607;27;20028;-54
2023/03/06 03:57:15;;;;;;;17.55;12.27;;;;;;;0.08;100.00;100669.59;5114361;28;20049;-56
2023/03/06 03:59:40;;;;;;;18.08;12.13;;;;;;;0.04;100.00;100668.03;5113920;27;20135;-57
2023/03/06 04:02:05;;;;;;;20.70;13.38;;;;;;;0.03;100.00;100661.09;5113969;28;20444;-57
2023/03/06 04:04:31;;;;;;;22.80;14.55;;;;;;;0.02;100.00;100659.38;5115237;27;20024;-55
2023/03/06 04:06:56;;;;;;;19.77;13.50;;;;;;;-0.01;100.00;100653.34;5113561;27;20024;-56
2023/03/06 04:09:22;;;;;;;20.33;14.02;;;;;;;-0.04;100.00;100647.41;5113672;28;20069;-57
2023/03/06 04:11:47;;;;;;;22.85;14.80;;;;;;;-0.05;100.00;100649.16;5114056;27;20039;-57
2023/03/06 04:14:12;;;;;;;23.00;14.95;;;;;;;-0.05;100.00;100643.06;5113932;28;20020;-56
2023/03/06 04:16:38;;;;;;;23.30;15.45;;;;;;;-0.06;100.00;100650.06;5113521;28;20050;-56
2023/03/06 04:19:03;;;;;;;21.65;15.30;;;;;;;-0.07;100.00;100650.09;5113653;28;20031;-56
2023/03/06 04:21:28;;;;;;;24.65;16.67;;;;;;;-0.08;100.00;100649.28;5114603;27;20055;-54
2023/03/06 04:23:53;;;;;;;25.77;16.92;;;;;;;-0.06;100.00;100657.03;5113672;27;20111;-56
2023/03/06 04:26:19;;;;;;;24.30;16.63;;;;;;;-0.07;100.00;100644.88;5113652;28;20026;-56
2023/03/06 04:28:44;;;;;;;26.88;16.85;;;;;;;-0.09;100.00;100651.94;5109453;28;20489;-56
2023/03/06 04:31:11;;;;;;;27.58;17.88;;;;;;;-0.10;100.00;100642.38;5114235;27;20080;-55
2023/03/06 04:33:37;;;;;;;25.50;17.50;;;;;;;-0.11;100.00;100636.31;5111410;27;20036;-55
2023/03/06 04:36:03;;;;;;;25.73;17.40;;;;;;;-0.11;100.00;100638.94;5114477;28;20478;-53
2023/03/06 04:38:28;;;;;;;29.15;18.45;;;;;;;-0.11;100.00;100635.47;5113863;27;20038;-56
2023/03/06 04:40:53;;;;;;;31.45;19.70;;;;;;;-0.10;100.00;100640.66;5095598;28;20040;-56
2023/03/06 04:43:19;;;;;;;29.73;18.35;;;;;;;-0.08;100.00;100633.59;5113894;27;20478;-57
2023/03/06 04:45:44;;;;;;;35.00;19.77;;;;;;;-0.08;100.00;100640.59;5113410;28;20046;-56
2023/03/06 04:48:13;;;;;;;31.85;19.75;;;;;;;-0.07;100.00;100624.84;5113386;27;20023;-55
2023/03/06 04:50:39;;;;;;;32.28;19.35;;;;;;;-0.06;100.00;100623.94;5113327;28;20026;-56
2023/03/06 04:53:04;;;;;;;30.40;19.95;;;;;;;-0.05;100.00;100622.19;5112869;28;20035;-54
2023/03/06 04:55:30;;;;;;;30.48;19.65;;;;;;;-0.05;100.00;100624.78;5113521;27;20026;-57
2023/03/06 04:57:56;;;;;;;30.75;19.88;;;;;;;-0.04;100.00;100616.91;5112516;28;20039;-57
2023/03/06 05:00:23;;;;;;;34.25;21.17;;;;;;;-0.04;100.00;100618.69;5112605;28;20031;-57
2023/03/06 05:02:49;;;;;;;33.22;20.77;;;;;;;0.00;100.00;100625.50;5113593;27;20031;-56
2023/03/06 05:05:16;;;;;;;32.80;21.05;;;;;;;0.02;100.00;100622.81;5114000;27;20137;-53
2023/03/06 05:07:42;;;;;;;34.25;21.48;;;;;;;0.03;100.00;100619.31;5112159;27;20019;-55
2023/03/06 05:10:11;;;;;;;35.35;21.30;;;;;;;0.04;100.00;100621.88;5112984;28;20036;-55
2023/03/06 05:12:38;;;;;;;32.15;21.20;;;;;;;0.07;100.00;100626.97;5113059;27;20038;-56
2023/03/06 05:15:05;;;;;;;32.60;21.23;;;;;;;0.05;100.00;100617.47;5114440;27;20023;-54
2023/03/06 05:17:31;;;;;;;30.88;20.90;;;;;;;0.08;100.00;100615.59;5113802;27;20019;-56
2023/03/06 05:19:56;;;;;;;33.50;20.95;;;;;;;0.10;100.00;100608.59;5112438;28;20033;-56
2023/03/06 05:22:22;;;;;;;35.67;21.17;;;;;;;0.12;100.00;100609.38;5116919;27;20031;-56
2023/03/06 05:24:47;;;;;;;34.53;21.60;;;;;;;0.14;100.00;100614.53;5112233;28;20049;-57
2023/03/06 05:27:12;;;;;;;35.15;21.00;;;;;;;0.16;100.00;100610.13;5105392;28;20020;-57
2023/03/06 05:29:38;;;;;;;35.08;21.40;;;;;;;0.16;100.00;100613.56;5114933;27;20076;-56
2023/03/06 05:32:03;;;;;;;34.33;21.30;;;;;;;0.20;100.00;100605.63;5105733;28;20473;-55
2023/03/06 05:34:28;;;;;;;37.33;22.40;;;;;;;0.21;100.00;100604.72;5112790;28;20031;-56
2023/03/06 05:36:54;;;;;;;34.53;22.00;;;;;;;0.22;100.00;100602.06;5112507;28;20020;-56
2023/03/06 05:39:19;;;;;;;37.05;22.63;;;;;;;0.23;100.00;100598.50;5115303;27;20182;-54
2023/03/06 05:41:45;;;;;;;35.35;22.08;;;;;;;0.24;100.00;100592.41;5112681;28;20047;-55
2023/03/06 05:44:10;;;;;;;36.83;22.88;;;;;;;0.25;100.00;100599.34;5115244;27;20122;-56
2023/03/06 05:46:36;;;;;;;35.60;22.08;;;;;;;0.28;100.00;100598.34;5108155;28;20059;-53
2023/03/06 05:49:02;;;;;;;35.42;22.60;;;;;;;0.28;100.00;100600.97;5111666;28;20417;-56
2023/03/06 05:51:27;;;;;;;39.22;22.98;;;;;;;0.30;100.00;100594.78;5115296;28;20035;-56
2023/03/06 05:53:52;;;;;;;42.65;24.25;;;;;;;0.31;100.00;100595.63;5093570;28;20389;-54
2023/03/06 05:56:18;;;;;;;39.72;22.55;;;;;;;0.33;100.00;100596.41;5113247;28;20028;-56
2023/03/06 05:58:43;;;;;;;33.95;20.77;;;;;;;0.34;100.00;100588.50;5111656;28;20512;-56
2023/03/06 06:01:14;;;;;;;36.20;22.27;;;;;;;0.34;100.00;100585.06;5106151;28;20036;-55
2023/03/06 06:03:40;;;;;;;38.67;23.75;;;;;;;0.37;100.00;100592.78;5112017;28;20027;-56
2023/03/06 06:06:08;;;;;;;37.95;24.20;;;;;;;0.36;100.00;100602.38;5112644;28;20385;-56
2023/03/06 06:08:34;;;;;;;35.80;22.80;;;;;;;0.40;100.00;100599.63;5112683;28;20103;-57
2023/03/06 06:10:59;;;;;;;40.22;23.42;;;;;;;0.40;100.00;100592.69;5111856;28;20027;-55
2023/03/06 06:13:24;;;;;;;37.00;24.27;;;;;;;0.40;100.00;100602.25;5112711;28;20081;-54
2023/03/06 06:15:50;;;;;;;36.53;23.65;;;;;;;0.43;100.00;100596.91;5112899;28;20077;-53
2023/03/06 06:18:15;;;;;;;38.42;24.00;;;;;;;0.43;100.00;100589.06;5101587;28;20093;-57
2023/03/06 06:20:40;;;;;;;40.53;23.63;;;;;;;0.44;100.00;100596.84;5107726;28;20513;-57
2023/03/06 06:23:06;;;;;;;38.10;24.17;;;;;;;0.46;100.00;100599.41;5111126;28;20027;-57
2023/03/06 06:25:32;;;;;;;40.65;24.48;;;;;;;0.47;100.00;100590.69;5104580;28;20031;-57
2023/03/06 06:27:57;;;;;;;40.95;24.48;;;;;;;0.49;100.00;100588.84;5111928;28;20032;-56
2023/03/06 06:30:23;;;;;;;37.83;23.92;;;;;;;0.49;100.00;100587.06;5108283;28;20035;-55
2023/03/06 06:32:48;;;;;;;40.35;24.05;;;;;;;0.50;100.00;100594.03;5090105;28;20093;-56
2023/03/06 06:35:13;;;;;;;37.13;23.67;;;;;;;0.51;100.00;100587.03;5112094;28;20036;-56
2023/03/06 06:37:39;;;;;;;37.88;24.10;;;;;;;0.52;100.00;100588.72;5110779;28;20024;-54
2023/03/06 06:40:05;;;;;;;40.25;23.83;;;;;;;0.53;100.00;100588.69;5108919;28;20397;-56
2023/03/06 06:42:30;;;;;;;38.78;25.23;;;;;;;0.55;100.00;100591.22;5112566;28;20040;-57
2023/03/06 06:44:56;;;;;;;42.33;25.00;;;;;;;0.57;100.00;100596.38;5110479;28;20024;-57
2023/03/06 06:47:21;;;;;;;40.08;24.77;;;;;;;0.59;100.00;100584.97;5112151;28;20405;-56
2023/03/06 06:49:51;;;;;;;42.85;25.08;;;;;;;0.62;100.00;100581.38;5106848;28;20051;-56
2023/03/06 06:52:17;;;;;;;42.70;26.05;;;;;;;0.64;100.00;100588.25;5106690;28;20031;-57
2023/03/06 06:54:43;;;;;;;41.97;25.60;;;;;;;0.67;100.00;100588.13;5112155;28;20080;-54
2023/03/06 06:57:10;;;;;;;44.50;26.08;;;;;;;0.69;100.00;100588.06;5111484;28;20115;-57
2023/03/06 06:59:35;;;;;;;40.03;24.85;;;;;;;0.71;100.00;100579.22;5112369;28;20043;-57
2023/03/06 07:02:00;;;;;;;45.80;27.17;;;;;;;0.73;100.00;100589.63;5110801;28;20023;-55
2023/03/06 07:04:26;;;;;;;44.65;26.95;;;;;;;0.76;100.00;100588.66;5099326;28;20038;-55
2023/03/06 07:06:54;;;;;;;45.95;28.13;;;;;;;0.78;100.00;100592.91;5111583;28;20026;-57
2023/03/06 07:09:21;;;;;;;44.43;25.57;;;;;;;0.82;100.00;100591.06;5104192;28;20032;-56
2023/03/06 07:11:46;;;;;;;42.40;26.38;;;;;;;0.85;100.00;100596.13;5109160;28;20465;-55
2023/03/06 07:14:11;;;;;;;43.13;26.13;;;;;;;0.86;100.00;100596.06;5115989;27;20039;-57
2023/03/06 07:16:37;;;;;;;47.08;28.23;;;;;;;0.89;100.00;100600.34;5101589;27;20036;-57
2023/03/06 07:19:02;;;;;;;48.47;29.33;;;;;;;0.90;100.00;100600.28;5113121;28;20172;-55
2023/03/06 07:21:27;;;;;;;48.05;28.17;;;;;;;0.93;100.00;100594.06;5114774;28;20035;-57
2023/03/06 07:23:55;;;;;;;48.15;29.80;;;;;;;0.97;100.00;100600.88;5112677;27;20076;-57
2023/03/06 07:26:22;;;;;;;51.40;29.50;;;;;;;1.00;100.00;100597.28;5110269;28;20028;-58
2023/03/06 07:28:51;;;;;;;48.63;28.88;;;;;;;1.01;100.00;100606.84;5110535;27;20054;-54
2023/03/06 07:31:17;;;;;;;;;;;;;;;1.07;100.00;100603.97;5110563;28;20080;-55
2023/03/06 07:33:43;;;;;;;49.15;28.10;;;;;;;1.06;100.00;100592.63;5116380;27;19998;-57
2023/03/06 07:36:09;;;;;;;49.25;29.55;;;;;;;1.08;100.00;100595.19;5114301;28;20058;-57
2023/03/06 07:38:35;;;;;;;47.85;28.92;;;;;;;1.13;100.00;100601.09;5110014;28;20063;-56
2023/03/06 07:41:00;;;;;;;49.88;30.08;;;;;;;1.18;100.00;100593.06;5112542;27;20386;-54
2023/03/06 07:43:26;;;;;;;51.17;29.83;;;;;;;1.23;100.00;100591.09;5114731;27;20366;-56
2023/03/06 07:45:56;;;;;;;50.83;32.08;;;;;;;1.29;100.00;100596.06;5112475;28;20092;-58
2023/03/06 07:48:21;;;;;;;50.15;30.00;;;;;;;1.33;100.00;100592.41;5113543;28;20035;-58
2023/03/06 07:50:57;;;;;;;49.08;30.50;;;;;;;1.37;100.00;100593.16;5107977;28;20092;-54
2023/03/06 07:53:23;;;;;;;48.47;30.45;;;;;;;1.42;100.00;100592.03;5108449;27;20040;-58
2023/03/06 07:55:49;;;;;;;48.88;30.15;;;;;;;1.45;100.00;100593.69;5108511;28;20051;-57
2023/03/06 07:58:14;;;;;;;49.45;29.27;;;;;;;1.50;100.00;100591.72;5102043;28;20467;-55
2023/03/06 08:00:39;;;;;;;53.13;30.80;;;;;;;1.54;100.00;100595.03;5111502;28;20031;-54
2023/03/06 08:03:04;;;;;;;51.13;30.58;;;;;;;1.58;100.00;100594.84;5111221;28;20044;-56
2023/03/06 08:05:30;;;;;;;48.08;30.42;;;;;;;1.61;100.00;100588.63;5113878;28;20031;-57
2023/03/06 08:07:55;;;;;;;47.70;29.40;;;;;;;1.63;100.00;100598.13;5113191;27;20031;-56
2023/03/06 08:10:21;;;;;;;47.78;29.30;;;;;;;1.66;100.00;100599.72;5108173;28;20538;-55
2023/03/06 08:12:46;;;;;;;52.08;29.92;;;;;;;1.69;100.00;100602.22;5109013;28;20458;-54
2023/03/06 08:15:12;;;;;;;47.33;29.67;;;;;;;1.72;100.00;100598.63;5110937;28;20031;-53
2023/03/06 08:17:37;;;;;;;45.25;29.33;;;;;;;1.74;100.00;100602.03;5109932;28;20024;-56
2023/03/06 08:20:03;;;;;;;46.20;28.25;;;;;;;1.76;100.00;100603.66;5117735;27;20378;-54
2023/03/06 08:22:28;;;;;;;45.13;28.00;;;;;;;1.80;100.00;100593.91;5113255;28;20361;-56
2023/03/06 08:24:55;;;;;;;48.05;29.67;;;;;;;1.83;100.00;100601.59;5113614;28;20466;-55
2023/03/06 08:27:20;;;;;;;46.55;29.55;;;;;;;1.87;100.00;100599.72;5114448;27;20489;-53
2023/03/06 08:29:45;;;;;;;44.55;29.08;;;;;;;1.89;100.00;100590.88;5104566;28;20097;-54
2023/03/06 08:32:11;;;;;;;42.78;27.80;;;;;;;1.91;100.00;100594.25;5101405;28;20698;-56
2023/03/06 08:34:38;;;;;;;44.42;28.30;;;;;;;1.98;100.00;100595.72;5112810;28;20091;-55
2023/03/06 08:37:04;;;;;;;40.75;26.33;;;;;;;2.05;100.00;100598.91;5106003;28;20436;-53
2023/03/06 08:39:29;;;;;;;44.90;26.92;;;;;;;2.13;100.00;100599.41;5106748;27;20114;-53
2023/03/06 08:41:55;;;;;;;38.78;25.48;;;;;;;2.20;100.00;100602.59;5108964;28;20126;-56
2023/03/06 08:44:21;;;;;;;40.13;25.85;;;;;;;2.26;100.00;100599.69;5108941;27;20056;-56
2023/03/06 08:46:46;;;;;;;41.67;26.42;;;;;;;2.36;100.00;100594.88;5111042;28;20334;-57
2023/03/06 08:49:12;;;;;;;41.50;26.75;;;;;;;2.43;100.00;100598.06;5111047;28;20035;-53
2023/03/06 08:51:38;;;;;;;37.33;25.52;;;;;;;2.49;100.00;100597.78;5112352;28;20235;-57
2023/03/06 08:54:03;;;;;;;35.33;23.77;;;;;;;2.54;100.00;100593.16;5111615;28;20066;-58
2023/03/06 08:56:31;;;;;;;39.80;25.40;;;;;;;2.63;100.00;100599.72;5110439;27;20538;-55
2023/03/06 08:58:59;;;;;;;38.95;23.77;;;;;;;2.69;100.00;100604.69;5088801;28;20028;-56
2023/03/06 09:01:30;;;;;;;35.55;23.58;;;;;;;2.72;100.00;100600.16;5119188;27;20027;-54
2023/03/06 09:03:58;;;;;;;35.15;24.67;;;;;;;2.81;100.00;100603.25;5112298;27;20127;-53
2023/03/06 09:06:25;;;;;;;36.35;24.48;;;;;;;2.87;100.00;100600.34;5111749;28;20035;-57
2023/03/06 09:08:52;;;;;;;36.35;24.17;;;;;;;2.94;100.00;100599.97;5112149;28;20521;-56
2023/03/06 09:11:23;;;;;;;36.78;25.50;;;;;;;3.03;100.00;100600.44;5112045;28;20043;-57
2023/03/06 09:13:48;;;;;;;37.50;25.30;;;;;;;3.09;100.00;100598.34;5105272;28;20027;-54
2023/03/06 09:16:14;;;;;;;37.70;24.77;;;;;;;3.17;100.00;100597.16;5105411;28;20023;-53
2023/03/06 09:18:39;;;;;;;34.80;23.52;;;;;;;3.25;100.00;100598.47;5108737;28;20027;-56
2023/03/06 09:21:06;;;;;;;35.40;24.90;;;;;;;3.32;100.00;100599.00;5111580;27;20028;-56
2023/03/06 09:23:32;;;;;;;34.75;23.77;;;;;;;3.40;100.00;100601.22;5111856;28;20016;-57
2023/03/06 09:25:58;;;;;;;36.25;23.58;;;;;;;3.45;100.00;100601.88;5104779;28;20035;-58
2023/03/06 09:28:24;;;;;;;33.83;23.63;;;;;;;3.51;100.00;100599.78;5110165;27;20394;-56
2023/03/06 09:30:50;;;;;;;32.83;22.95;;;;;;;3.58;100.00;100604.69;5110988;28;20038;-56
2023/03/06 09:33:15;;;;;;;33.45;22.38;;;;;;;3.64;100.00;100599.97;5111952;27;20023;-56
2023/03/06 09:35:52;;;;;;;31.05;21.90;;;;;;;3.69;100.00;100611.09;5111800;27;20034;-54
2023/03/06 09:38:19;;;;;;;30.80;22.30;;;;;;;3.75;100.00;100614.31;5101866;28;20380;-56
2023/03/06 09:40:54;;;;;;;32.05;21.67;;;;;;;3.81;100.00;100611.38;5111733;28;20499;-56
2023/03/06 09:43:29;;;;;;;32.05;22.35;;;;;;;3.85;100.00;100607.69;5112637;28;20051;-55
2023/03/06 09:45:56;;;;;;;32.33;22.70;;;;;;;3.88;100.00;100600.47;5112353;28;20031;-57
2023/03/06 09:48:35;;;;;;;32.38;22.58;;;;;;;3.95;100.00;100608.06;5113256;28;20031;-57
2023/03/06 09:51:09;;;;;;;28.52;20.83;;;;;;;4.02;100.00;100610.25;5112153;28;20027;-57
2023/03/06 09:54:02;;;;;;;30.00;21.23;;;;;;;4.12;100.00;100605.38;5100117;28;20073;-55
2023/03/06 09:56:32;;;;;;;27.10;19.45;;;;;;;4.18;100.00;100602.41;5106969;28;20473;-54
2023/03/06 09:59:16;;;;;;;27.23;19.08;;;;;;;4.25;100.00;100603.78;5102272;28;20023;-55
2023/03/06 10:01:50;;;;;;;28.30;19.58;;;;;;;4.30;100.00;100600.03;5112138;28;20028;-53
2023/03/06 10:04:32;;;;;;;26.25;18.52;;;;;;;4.41;100.00;100609.06;5112132;28;20055;-56
2023/03/06 10:07:02;;;;;;;25.77;18.90;;;;;;;4.48;100.00;100604.31;5112289;28;20027;-61
2023/03/06 10:09:39;;;;;;;26.75;18.80;;;;;;;4.54;100.00;100609.22;5113720;28;20026;-54
2023/03/06 10:12:25;;;;;;;23.30;17.38;;;;;;;4.60;100.00;100608.88;5112134;28;20024;-56
2023/03/06 10:15:11;;;;;;;27.38;17.80;;;;;;;4.62;100.00;100604.38;5111752;28;20040;-57
2023/03/06 10:17:39;;;;;;;27.05;20.02;;;;;;;4.67;100.00;100601.50;5114077;28;20122;-56
2023/03/06 10:20:21;;;;;;;30.77;19.60;;;;;;;4.71;100.00;100599.53;5113773;28;20106;-56
2023/03/06 10:23:08;;;;;;;28.25;19.00;;;;;;;4.75;100.00;100599.28;5115228;28;20019;-54
2023/03/06 10:25:52;;;;;;;24.95;17.50;;;;;;;4.85;100.00;100596.16;5112537;28;20469;-55
2023/03/06 10:28:48;;;;;;;22.58;17.23;;;;;;;4.92;100.00;100598.31;5111511;28;20066;-56
2023/03/06 10:31:27;;;;;;;27.10;17.08;;;;;;;4.97;98.04;100590.16;5107619;28;20047;-55
2023/03/06 10:33:54;;;;;;;24.13;17.33;;;;;;;4.99;97.93;100586.50;5091238;28;20445;-54
2023/03/06 10:36:24;;;;;;;24.65;17.70;;;;;;;5.09;98.55;100593.88;5112628;28;20035;-55
2023/03/06 10:38:49;;;;;;;25.55;18.58;;;;;;;5.14;96.82;100594.47;5113182;28;20505;-54
2023/03/06 10:41:29;;;;;;;23.48;16.35;;;;;;;5.18;95.72;100588.09;5106147;28;20048;-53
2023/03/06 10:44:04;;;;;;;22.92;17.17;;;;;;;5.30;95.78;100590.00;5106771;28;20035;-56
2023/03/06 10:46:33;;;;;;;20.52;16.00;;;;;;;5.35;95.02;100587.94;5113480;27;20134;-58
2023/03/06 10:49:01;;;;;;;19.40;14.50;;;;;;;5.41;92.74;100585.88;5115699;28;20462;-57
2023/03/06 10:51:28;;;;;;;20.52;14.80;;;;;;;5.53;93.53;100586.00;5104282;28;20036;-58
2023/03/06 10:53:59;;;;;;;21.50;14.38;;;;;;;5.61;92.41;100595.22;5116067;28;20019;-58
2023/03/06 10:56:27;;;;;;;20.02;14.35;;;;;;;5.67;91.73;100587.81;5115774;27;20032;-57
2023/03/06 10:59:12;;;;;;;17.70;13.98;;;;;;;5.78;92.14;100581.91;5115744;28;20082;-56
2023/03/06 11:02:18;;;;;;;18.35;14.05;;;;;;;5.87;92.03;100585.75;5114708;28;20030;-57
2023/03/06 11:04:49;;;;;;;19.08;13.82;;;;;;;5.86;90.39;100594.59;5115891;27;20048;-57
2023/03/06 11:07:22;;;;;;;20.63;14.77;;;;;;;5.88;90.18;100588.31;5115874;28;20076;-58
2023/03/06 11:09:59;;;;;;;18.77;14.40;;;;;;;5.90;90.53;100593.47;5106119;28;20096;-58
2023/03/06 11:12:38;;;;;;;18.67;13.88;;;;;;;5.95;90.71;100586.13;5112795;28;20474;-57
2023/03/06 11:15:25;;;;;;;21.55;13.60;;;;;;;6.04;91.28;100592.66;5110155;28;20023;-56